Terminal Aerodrome Forecast
Issued by NWS Boston, MA

Home | Current Version | Previous Version | Text Only | Print | Product List | Glossary Off
Versions: 1 2 3 4 5 6 7 8 9 10 11 12 13 14 15 16 17 18 19 20 21 22
000 FTUS41 KBOX 211522 AAA TAFPVD TAF AMD KPVD 211522Z 2115/2212 28008KT P6SM BKN300 FM211800 22010KT P6SM FEW045 FM220100 23007KT P6SM FEW250=

USA.gov is the U.S. government's official web portal to all federal, state and local government web resources and services.